Prince Of Seas — A8JI5 — position and weather

sailwx.info

Track history (hours):
 
Tides and Currents Weather Stations Pressure Air Temp Water Temp Dewpoint Dewpoint Depression Visibility Wind Speed Wind Dir Waves Ship Positions

Prince Of Seas

Last reported at 2018-Feb-13 06:11 UTC. Time now 2018-Feb-23 12:51 UTC.
Position N 28°44' W 015°50'.
Warning: this ship's position is 10 days out of date.

Length 131 m; beam 19 m.

Type: Ship. MMSI: 636018457.

Date/timePositionNaut miles runAvg speedWind from/ knotsBaromVisibWave heightAir tempDewpointWater temp
2018-Feb-13 06:11N 28°44' W 015°50'316.7
2018-Feb-13 05:59N 28°42' W 015°46'816.7
2018-Feb-13 05:30N 28°38' W 015°38'816.8
2018-Feb-13 05:01N 28°34' W 015°30'816.8
2018-Feb-13 04:31N 28°31' W 015°22'713.6
2018-Feb-13 04:00N 28°25' W 015°17'815.2
2018-Feb-13 03:30N 28°18' W 015°19'713.7
2018-Feb-13 03:00N 28°11' W 015°21'5 9.5
2018-Feb-13 02:30N 28°07' W 015°24'0 0.6
2018-Feb-13 01:58N 28°07' W 015°25'0 0.0
2018-Feb-13 01:28N 28°07' W 015°25'0 0.0
2018-Feb-13 00:58N 28°07' W 015°25'0 0.0
2018-Feb-13 00:28N 28°07' W 015°25'0 0.0
2018-Feb-12 23:58N 28°07' W 015°25'0 0.0
2018-Feb-12 23:28N 28°07' W 015°25'0 0.0
2018-Feb-12 22:58N 28°07' W 015°25'0 0.0
2018-Feb-12 22:28N 28°07' W 015°25'0 0.0
2018-Feb-12 21:58N 28°07' W 015°25'0 0.0
2018-Feb-12 21:28N 28°07' W 015°25'0 0.0
2018-Feb-12 20:58N 28°07' W 015°25'0 0.0
2018-Feb-12 20:28N 28°07' W 015°25'0 0.0
2018-Feb-12 19:58N 28°07' W 015°25'0 0.0
2018-Feb-12 19:28N 28°07' W 015°25'0 0.0
2018-Feb-12 18:58N 28°07' W 015°25'0 0.0
2018-Feb-12 18:28N 28°07' W 015°25'0 0.0
2018-Feb-12 17:58N 28°07' W 015°25'0 0.0
2018-Feb-12 17:28N 28°07' W 015°25'0 0.0
2018-Feb-12 16:58N 28°07' W 015°25'0 0.0
2018-Feb-12 16:28N 28°07' W 015°25'0 0.0
2018-Feb-12 15:58N 28°07' W 015°25'0 0.2
2018-Feb-12 15:29N 28°07' W 015°24'1 2.5
2018-Feb-12 15:00N 28°07' W 015°23'3 6.4
2018-Feb-12 14:30N 28°08' W 015°20'612.3
2018-Feb-12 14:00N 28°14' W 015°16'816.7
2018-Feb-12 13:30N 28°20' W 015°10'917.3
2018-Feb-12 13:00N 28°26' W 015°03'917.4
2018-Feb-12 12:30N 28°32' W 014°56'917.4
2018-Feb-12 11:58N 28°39' W 014°49'917.3
2018-Feb-12 11:27N 28°45' W 014°42'  
2018-Feb-06 03:51N 11°30' W 017°22'1317.7
2018-Feb-06 03:06N 11°18' W 017°17'217.5
2018-Feb-06 03:00N 11°16' W 017°16'917.9
2018-Feb-06 02:30N 11°08' W 017°13'917.8
2018-Feb-06 01:59N 10°59' W 017°10'1817.6
2018-Feb-06 00:56N 10°41' W 017°04'1617.6
2018-Feb-06 00:00N 10°27' W 016°57'918.0
2018-Feb-05 23:29N 10°19' W 016°51'2817.8
2018-Feb-05 21:56N 09°58' W 016°33'817.7
2018-Feb-05 21:30N 09°52' W 016°28'917.7
2018-Feb-05 20:58N 09°45' W 016°22'1717.5
2018-Feb-05 20:00N 09°32' W 016°11'1817.7
2018-Feb-05 19:00N 09°20' W 015°58'4417.6
2018-Feb-05 16:30N 08°48' W 015°27'917.6
2018-Feb-05 16:00N 08°42' W 015°20'917.5
2018-Feb-05 15:30N 08°36' W 015°14'917.4
2018-Feb-05 14:57N 08°29' W 015°07'2417.9
2018-Feb-05 13:36N 08°12' W 014°50'2417.9
2018-Feb-05 12:17N 07°55' W 014°33'518.2
2018-Feb-05 12:00N 07°52' W 014°29'  
Track history (hours):
 
Tides and Currents Weather Stations Pressure Air Temp Water Temp Dewpoint Dewpoint Depression Visibility Wind Speed Wind Dir Waves Ship Positions

Prince Of Seas

Last reported at 2018-Feb-13 06:11 UTC. Time now 2018-Feb-23 12:51 UTC.
Position N 28°44' W 015°50'.
Warning: this ship's position is 10 days out of date.

Length 131 m; beam 19 m.

Type: Ship. MMSI: 636018457.

Date/timePositionNaut miles runAvg speedWind from/ knotsBaromVisibWave heightAir tempDewpointWater temp
2018-Feb-13 06:11N 28°44' W 015°50'316.7
2018-Feb-13 05:59N 28°42' W 015°46'816.7
2018-Feb-13 05:30N 28°38' W 015°38'816.8
2018-Feb-13 05:01N 28°34' W 015°30'816.8
2018-Feb-13 04:31N 28°31' W 015°22'713.6
2018-Feb-13 04:00N 28°25' W 015°17'815.2
2018-Feb-13 03:30N 28°18' W 015°19'713.7
2018-Feb-13 03:00N 28°11' W 015°21'5 9.5
2018-Feb-13 02:30N 28°07' W 015°24'0 0.6
2018-Feb-13 01:58N 28°07' W 015°25'0 0.0
2018-Feb-13 01:28N 28°07' W 015°25'0 0.0
2018-Feb-13 00:58N 28°07' W 015°25'0 0.0
2018-Feb-13 00:28N 28°07' W 015°25'0 0.0
2018-Feb-12 23:58N 28°07' W 015°25'0 0.0
2018-Feb-12 23:28N 28°07' W 015°25'0 0.0
2018-Feb-12 22:58N 28°07' W 015°25'0 0.0
2018-Feb-12 22:28N 28°07' W 015°25'0 0.0
2018-Feb-12 21:58N 28°07' W 015°25'0 0.0
2018-Feb-12 21:28N 28°07' W 015°25'0 0.0
2018-Feb-12 20:58N 28°07' W 015°25'0 0.0
2018-Feb-12 20:28N 28°07' W 015°25'0 0.0
2018-Feb-12 19:58N 28°07' W 015°25'0 0.0
2018-Feb-12 19:28N 28°07' W 015°25'0 0.0
2018-Feb-12 18:58N 28°07' W 015°25'0 0.0
2018-Feb-12 18:28N 28°07' W 015°25'0 0.0
2018-Feb-12 17:58N 28°07' W 015°25'0 0.0
2018-Feb-12 17:28N 28°07' W 015°25'0 0.0
2018-Feb-12 16:58N 28°07' W 015°25'0 0.0
2018-Feb-12 16:28N 28°07' W 015°25'0 0.0
2018-Feb-12 15:58N 28°07' W 015°25'0 0.2
2018-Feb-12 15:29N 28°07' W 015°24'1 2.5
2018-Feb-12 15:00N 28°07' W 015°23'3 6.4
2018-Feb-12 14:30N 28°08' W 015°20'612.3
2018-Feb-12 14:00N 28°14' W 015°16'816.7
2018-Feb-12 13:30N 28°20' W 015°10'917.3
2018-Feb-12 13:00N 28°26' W 015°03'917.4
2018-Feb-12 12:30N 28°32' W 014°56'917.4
2018-Feb-12 11:58N 28°39' W 014°49'917.3
2018-Feb-12 11:27N 28°45' W 014°42'  
2018-Feb-06 03:51N 11°30' W 017°22'1317.7
2018-Feb-06 03:06N 11°18' W 017°17'217.5
2018-Feb-06 03:00N 11°16' W 017°16'917.9
2018-Feb-06 02:30N 11°08' W 017°13'917.8
2018-Feb-06 01:59N 10°59' W 017°10'1817.6
2018-Feb-06 00:56N 10°41' W 017°04'1617.6
2018-Feb-06 00:00N 10°27' W 016°57'918.0
2018-Feb-05 23:29N 10°19' W 016°51'2817.8
2018-Feb-05 21:56N 09°58' W 016°33'817.7
2018-Feb-05 21:30N 09°52' W 016°28'917.7
2018-Feb-05 20:58N 09°45' W 016°22'1717.5
2018-Feb-05 20:00N 09°32' W 016°11'1817.7
2018-Feb-05 19:00N 09°20' W 015°58'4417.6
2018-Feb-05 16:30N 08°48' W 015°27'917.6
2018-Feb-05 16:00N 08°42' W 015°20'917.5
2018-Feb-05 15:30N 08°36' W 015°14'917.4
2018-Feb-05 14:57N 08°29' W 015°07'2417.9
2018-Feb-05 13:36N 08°12' W 014°50'2417.9
2018-Feb-05 12:17N 07°55' W 014°33'518.2
2018-Feb-05 12:00N 07°52' W 014°29'  

Dump ship's entire track history